createdAt,value
2022-10-30T00:01:05.280Z,99.90
2022-10-30T00:03:32.540Z,99.90
2022-10-30T00:05:59.779Z,99.90
2022-10-30T00:08:27.136Z,99.90
2022-10-30T00:10:54.543Z,99.90
2022-10-30T00:13:22.303Z,99.90
2022-10-30T00:15:52.404Z,99.90
2022-10-30T00:18:20.817Z,99.90
2022-10-30T00:20:48.965Z,99.90
2022-10-30T00:23:16.578Z,99.90
2022-10-30T00:25:43.787Z,99.90
2022-10-30T00:28:11.068Z,99.90
2022-10-30T00:30:38.340Z,99.90
2022-10-30T00:33:05.739Z,99.90
2022-10-30T00:35:34.264Z,99.90
2022-10-30T00:38:03.105Z,99.90
2022-10-30T00:40:30.460Z,99.90
2022-10-30T00:42:57.689Z,99.90
2022-10-30T00:45:25.526Z,99.90
2022-10-30T00:47:55.199Z,99.90
2022-10-30T00:50:34.604Z,99.90
2022-10-30T00:53:12.775Z,99.90
2022-10-30T00:55:50.051Z,99.90
2022-10-30T00:58:21.126Z,99.90
2022-10-30T01:00:52.888Z,99.90
2022-10-30T01:03:21.491Z,99.90
2022-10-30T01:05:52.745Z,99.90
2022-10-30T01:08:20.489Z,99.90
2022-10-30T01:10:49.740Z,99.90
2022-10-30T01:13:20.349Z,99.90
2022-10-30T01:16:25.470Z,99.90
2022-10-30T01:19:07.985Z,99.90
2022-10-30T01:21:44.296Z,99.90
2022-10-30T01:24:40.476Z,99.90
2022-10-30T01:27:51.227Z,99.90
2022-10-30T01:30:31.010Z,99.90
2022-10-30T01:33:16.499Z,99.90
2022-10-30T01:35:49.206Z,99.90
2022-10-30T01:38:28.730Z,99.90
2022-10-30T01:40:56.137Z,99.90
2022-10-30T01:43:23.551Z,99.90
2022-10-30T01:46:15.037Z,99.90
2022-10-30T01:49:12.527Z,99.90
2022-10-30T01:51:57.799Z,99.90
2022-10-30T01:54:46.896Z,99.90
2022-10-30T01:57:33.065Z,99.90
2022-10-30T02:00:07.502Z,99.90
2022-10-30T02:02:42.184Z,99.90
2022-10-30T02:05:17.440Z,99.90
2022-10-30T02:07:44.802Z,99.90
2022-10-30T02:10:13.343Z,99.90
2022-10-30T02:12:41.355Z,99.90
2022-10-30T02:15:11.300Z,99.90
2022-10-30T02:17:40.691Z,99.90
2022-10-30T02:20:15.026Z,99.90
2022-10-30T02:22:42.604Z,99.90
2022-10-30T02:25:10.750Z,99.90
2022-10-30T02:27:38.110Z,99.90
2022-10-30T02:30:06.413Z,99.90
2022-10-30T02:32:34.763Z,99.90
2022-10-30T02:35:02.084Z,99.90
2022-10-30T02:37:31.128Z,99.90
2022-10-30T02:39:59.130Z,99.90
2022-10-30T02:42:26.384Z,99.90
2022-10-30T02:44:54.330Z,99.90
2022-10-30T02:47:21.797Z,99.90
2022-10-30T02:49:50.377Z,99.90
2022-10-30T02:52:17.658Z,99.90
2022-10-30T02:54:44.959Z,99.90
2022-10-30T02:57:12.532Z,99.90
2022-10-30T02:59:39.801Z,99.90
2022-10-30T03:02:07.653Z,99.90
2022-10-30T03:04:35.055Z,99.90
2022-10-30T03:07:02.382Z,99.90
2022-10-30T03:09:29.626Z,99.90
2022-10-30T03:11:57.218Z,99.90
2022-10-30T03:14:24.465Z,99.90
2022-10-30T03:16:52.740Z,99.90
2022-10-30T03:19:20.162Z,99.90
2022-10-30T03:21:47.746Z,99.90
2022-10-30T03:24:15.141Z,99.90
2022-10-30T03:26:42.592Z,99.90
2022-10-30T03:29:09.860Z,99.90
2022-10-30T03:31:37.251Z,99.90
2022-10-30T03:34:24.777Z,99.90
2022-10-30T03:36:52.169Z,99.90
2022-10-30T03:39:20.640Z,99.90
2022-10-30T03:41:47.982Z,99.90
2022-10-30T03:44:15.692Z,99.90
2022-10-30T03:46:42.995Z,99.90
2022-10-30T03:49:39.549Z,99.90
2022-10-30T03:52:11.179Z,99.90
2022-10-30T03:54:38.518Z,99.90
2022-10-30T03:57:05.875Z,99.90
2022-10-30T03:59:53.389Z,99.90
2022-10-30T04:02:48.879Z,99.90
2022-10-30T04:05:19.176Z,99.90
2022-10-30T04:07:48.166Z,99.90
2022-10-30T04:10:20.902Z,99.90
2022-10-30T04:12:53.003Z,99.90
2022-10-30T04:15:20.458Z,99.90
2022-10-30T04:17:54.167Z,99.90
2022-10-30T04:20:23.268Z,99.90
2022-10-30T04:23:01.525Z,99.90
2022-10-30T04:25:29.445Z,99.90
2022-10-30T04:27:59.432Z,99.90
2022-10-30T04:30:34.104Z,99.90
2022-10-30T04:33:04.284Z,99.90
2022-10-30T04:35:33.755Z,99.90
2022-10-30T04:38:06.408Z,99.90
2022-10-30T04:40:37.513Z,99.90
2022-10-30T04:43:07.963Z,99.90
2022-10-30T04:45:36.707Z,99.90
2022-10-30T04:48:17.702Z,99.90
2022-10-30T04:50:47.087Z,99.90
2022-10-30T04:53:22.290Z,99.90
2022-10-30T04:55:54.985Z,99.90
2022-10-30T04:58:22.676Z,99.90
2022-10-30T05:01:04.671Z,99.90
2022-10-30T05:03:32.983Z,99.90
2022-10-30T05:06:07.775Z,99.90
2022-10-30T05:08:35.162Z,99.90
2022-10-30T05:11:11.389Z,99.90
2022-10-30T05:13:38.964Z,99.90
2022-10-30T05:16:06.648Z,99.90
2022-10-30T05:18:34.273Z,99.90
2022-10-30T05:21:02.593Z,99.90
2022-10-30T05:23:29.878Z,99.90
2022-10-30T05:25:57.475Z,99.90
2022-10-30T05:28:24.989Z,99.90
2022-10-30T05:30:56.710Z,99.90
2022-10-30T05:33:42.589Z,99.90
2022-10-30T05:36:09.995Z,99.90
2022-10-30T05:38:37.322Z,99.90
2022-10-30T05:41:07.851Z,99.90
2022-10-30T05:43:35.632Z,99.90
2022-10-30T05:46:02.939Z,99.90
2022-10-30T05:48:30.563Z,99.90
2022-10-30T05:50:57.788Z,99.90
2022-10-30T05:53:28.187Z,99.90
2022-10-30T05:55:58.282Z,99.90
2022-10-30T05:58:28.980Z,99.90
2022-10-30T06:00:58.612Z,99.90
2022-10-30T06:03:45.815Z,99.90
2022-10-30T06:06:13.497Z,99.90
2022-10-30T06:08:40.770Z,99.90
2022-10-30T06:11:31.323Z,99.90
2022-10-30T06:14:00.316Z,99.90
2022-10-30T06:16:50.081Z,99.90
2022-10-30T06:19:37.651Z,99.90
2022-10-30T06:22:25.162Z,99.90
2022-10-30T06:24:59.840Z,99.90
2022-10-30T06:27:45.636Z,99.90
2022-10-30T06:30:13.837Z,99.90
2022-10-30T06:32:41.083Z,99.90
2022-10-30T06:35:11.759Z,99.90
2022-10-30T06:37:42.164Z,99.90
2022-10-30T06:40:11.741Z,99.90
2022-10-30T06:43:11.469Z,99.90
2022-10-30T06:45:43.269Z,99.90
2022-10-30T06:48:10.666Z,99.90
2022-10-30T06:50:42.296Z,99.90
2022-10-30T06:53:09.692Z,99.90
2022-10-30T06:55:37.685Z,99.90
2022-10-30T06:58:39.959Z,99.90
2022-10-30T07:01:33.275Z,99.90
2022-10-30T07:04:26.624Z,99.90
2022-10-30T07:06:55.859Z,99.90
2022-10-30T07:09:23.900Z,99.90
2022-10-30T07:11:56.534Z,99.90
2022-10-30T07:14:42.168Z,99.90
2022-10-30T07:17:17.563Z,99.90
2022-10-30T07:19:51.253Z,99.90
2022-10-30T07:22:18.782Z,99.90
2022-10-30T07:24:51.153Z,99.90
2022-10-30T07:27:43.601Z,99.90
2022-10-30T07:30:27.959Z,99.90
2022-10-30T07:33:13.945Z,99.90
2022-10-30T07:35:54.570Z,99.90
2022-10-30T07:38:40.653Z,99.90
2022-10-30T07:41:22.686Z,99.90
2022-10-30T07:43:52.624Z,99.90
2022-10-30T07:46:45.260Z,99.90
2022-10-30T07:49:25.570Z,99.90
2022-10-30T07:51:58.145Z,99.90
2022-10-30T07:54:25.503Z,99.90
2022-10-30T07:56:53.475Z,99.90
2022-10-30T07:59:44.218Z,99.90
2022-10-30T08:02:40.169Z,99.90
2022-10-30T08:05:29.108Z,99.90
2022-10-30T08:08:04.919Z,99.90
2022-10-30T08:10:32.460Z,99.90
2022-10-30T08:12:59.690Z,99.90
2022-10-30T08:15:27.619Z,99.90
2022-10-30T08:17:55.629Z,99.90
2022-10-30T08:20:24.849Z,99.90
2022-10-30T08:22:52.348Z,99.90
2022-10-30T08:25:25.345Z,99.90
2022-10-30T08:28:07.204Z,99.90
2022-10-30T08:30:39.416Z,99.90
2022-10-30T08:33:13.884Z,99.90
2022-10-30T08:35:58.395Z,99.90
2022-10-30T08:38:28.242Z,99.90
2022-10-30T08:41:14.245Z,99.90
2022-10-30T08:43:45.854Z,99.90
2022-10-30T08:46:13.169Z,99.90
2022-10-30T08:48:41.458Z,99.90
2022-10-30T08:51:08.777Z,99.90
2022-10-30T08:53:41.809Z,99.90
2022-10-30T08:56:13.197Z,99.90
2022-10-30T08:59:01.769Z,99.90
2022-10-30T09:01:29.145Z,99.90
2022-10-30T09:04:14.856Z,99.90
2022-10-30T09:07:13.029Z,99.90
2022-10-30T09:09:59.403Z,99.90
2022-10-30T09:12:29.995Z,99.90
2022-10-30T09:14:57.565Z,99.90
2022-10-30T09:17:25.380Z,99.90
2022-10-30T09:19:52.983Z,99.90
2022-10-30T09:22:30.599Z,99.90
2022-10-30T09:24:57.965Z,99.90
2022-10-30T09:27:54.878Z,99.90
2022-10-30T09:30:25.822Z,99.90
2022-10-30T09:33:02.888Z,99.90
2022-10-30T09:35:59.848Z,99.90
2022-10-30T09:38:27.334Z,99.90
2022-10-30T09:41:01.931Z,99.90
2022-10-30T09:43:44.692Z,99.90
2022-10-30T09:46:17.555Z,99.90
2022-10-30T09:48:56.245Z,99.90
2022-10-30T09:51:54.756Z,99.90
2022-10-30T09:54:28.594Z,99.90
2022-10-30T09:57:05.840Z,99.90
2022-10-30T09:59:54.354Z,99.90
2022-10-30T10:02:33.647Z,99.90
2022-10-30T10:05:16.427Z,99.90
2022-10-30T10:08:16.864Z,99.90
2022-10-30T10:11:08.882Z,99.90
2022-10-30T10:13:46.285Z,99.90
2022-10-30T10:16:25.318Z,99.90
2022-10-30T10:18:52.746Z,99.90
2022-10-30T10:21:28.093Z,99.90
2022-10-30T10:23:58.241Z,99.90
2022-10-30T10:26:54.637Z,99.90
2022-10-30T10:29:46.150Z,99.90
2022-10-30T10:32:28.721Z,99.90
2022-10-30T10:35:17.348Z,99.90
2022-10-30T10:37:49.544Z,99.90
2022-10-30T10:40:22.154Z,99.90
2022-10-30T10:43:08.099Z,99.90
2022-10-30T10:45:41.321Z,99.90
2022-10-30T10:48:32.742Z,99.90
2022-10-30T10:51:24.918Z,99.90
2022-10-30T10:54:02.469Z,99.90
2022-10-30T10:56:37.283Z,99.90
2022-10-30T10:59:15.196Z,99.90
2022-10-30T11:02:02.774Z,99.90
2022-10-30T11:04:40.354Z,99.90
2022-10-30T11:07:20.745Z,99.90
2022-10-30T11:09:55.578Z,99.90
2022-10-30T11:12:36.302Z,99.90
2022-10-30T11:15:16.239Z,99.90
2022-10-30T11:18:00.445Z,99.90
2022-10-30T11:20:43.636Z,99.90
2022-10-30T11:23:39.133Z,99.90
2022-10-30T11:26:31.051Z,99.90
2022-10-30T11:28:58.348Z,99.90
2022-10-30T11:32:02.339Z,99.90
2022-10-30T11:34:33.594Z,99.90
2022-10-30T11:37:01.027Z,99.90
2022-10-30T11:39:34.160Z,99.90
2022-10-30T11:42:06.136Z,99.90
2022-10-30T11:44:50.822Z,99.90
2022-10-30T11:47:28.199Z,99.90
2022-10-30T11:49:58.779Z,99.90
2022-10-30T11:52:27.557Z,99.90
2022-10-30T11:55:02.940Z,99.90
2022-10-30T11:57:41.836Z,99.90
2022-10-30T12:00:24.430Z,99.90
2022-10-30T12:02:54.164Z,99.90
2022-10-30T12:05:27.525Z,99.90
2022-10-30T12:08:14.835Z,99.90
2022-10-30T12:10:41.998Z,99.90
2022-10-30T12:13:15.800Z,99.90
2022-10-30T12:15:45.563Z,99.90
2022-10-30T12:18:25.260Z,98.00
2022-10-30T12:20:57.899Z,96.20
2022-10-30T12:23:26.980Z,95.30
2022-10-30T12:25:57.666Z,93.60
2022-10-30T12:28:30.704Z,92.50
2022-10-30T12:31:21.086Z,91.10
2022-10-30T12:33:57.160Z,87.50
2022-10-30T12:36:30.296Z,86.00
2022-10-30T12:39:09.383Z,85.00
2022-10-30T12:41:40.739Z,84.50
2022-10-30T12:44:07.930Z,83.20
2022-10-30T12:46:59.002Z,81.70
2022-10-30T12:49:36.219Z,80.40
2022-10-30T12:52:24.818Z,78.70
2022-10-30T12:55:09.618Z,78.20
2022-10-30T12:57:42.713Z,78.30
2022-10-30T13:00:17.474Z,78.30
2022-10-30T13:03:01.427Z,78.10
2022-10-30T13:05:47.706Z,78.20
2022-10-30T13:08:36.657Z,76.30
2022-10-30T13:11:22.680Z,76.50
2022-10-30T13:13:52.542Z,76.50
2022-10-30T13:16:27.093Z,74.50
2022-10-30T13:18:57.891Z,74.00
2022-10-30T13:21:53.294Z,73.30
2022-10-30T13:24:26.244Z,72.10
2022-10-30T13:27:05.089Z,70.60
2022-10-30T13:29:44.631Z,70.60
2022-10-30T13:32:33.328Z,69.90
2022-10-30T13:35:11.027Z,71.00
2022-10-30T13:37:57.008Z,71.10
2022-10-30T13:40:42.753Z,70.90
2022-10-30T13:43:22.017Z,71.20
2022-10-30T13:46:22.384Z,70.50
2022-10-30T13:49:00.228Z,71.30
2022-10-30T13:51:39.332Z,71.90
2022-10-30T13:54:28.739Z,72.00
2022-10-30T13:56:56.902Z,71.40
2022-10-30T13:59:35.723Z,70.70
2022-10-30T14:02:33.497Z,70.60
2022-10-30T14:05:39.927Z,70.90
2022-10-30T14:08:27.578Z,71.30
2022-10-30T14:11:00.598Z,71.00
2022-10-30T14:13:45.717Z,70.10
2022-10-30T14:16:44.280Z,70.10
2022-10-30T14:19:18.546Z,71.60
2022-10-30T14:21:56.366Z,72.30
2022-10-30T14:24:29.133Z,73.40
2022-10-30T14:27:05.759Z,74.60
2022-10-30T14:29:36.235Z,76.50
2022-10-30T14:32:34.250Z,77.40
2022-10-30T14:35:01.655Z,78.80
2022-10-30T14:37:29.090Z,80.10
2022-10-30T14:39:57.387Z,80.90
2022-10-30T14:42:32.479Z,82.60
2022-10-30T14:45:15.072Z,83.90
2022-10-30T14:48:12.940Z,85.20
2022-10-30T14:50:40.178Z,85.90
2022-10-30T14:53:41.033Z,88.00
2022-10-30T14:59:08.157Z,90.90
2022-10-30T15:01:44.843Z,91.70
2022-10-30T15:04:50.572Z,92.60
2022-10-30T15:07:29.647Z,93.50
2022-10-30T15:10:24.617Z,94.50
2022-10-30T15:13:04.278Z,95.40
2022-10-30T15:15:32.461Z,96.60
2022-10-30T15:18:04.332Z,97.70
2022-10-30T15:20:33.310Z,99.30
2022-10-30T15:23:04.770Z,99.90
2022-10-30T15:25:47.699Z,99.90
2022-10-30T15:28:21.078Z,99.90
2022-10-30T15:31:07.939Z,99.90
2022-10-30T15:33:38.662Z,99.90
2022-10-30T15:36:06.300Z,99.90
2022-10-30T15:38:33.787Z,99.90
2022-10-30T15:41:03.412Z,99.90
2022-10-30T15:43:40.941Z,99.90
2022-10-30T15:46:12.022Z,99.90
2022-10-30T15:48:45.709Z,99.90
2022-10-30T15:51:21.221Z,99.90
2022-10-30T15:53:50.666Z,99.90
2022-10-30T15:56:26.586Z,99.90
2022-10-30T15:59:23.162Z,99.90
2022-10-30T16:01:53.813Z,99.90
2022-10-30T16:04:23.688Z,99.90
2022-10-30T16:07:15.229Z,99.90
2022-10-30T16:09:59.499Z,99.90
2022-10-30T16:12:34.621Z,99.90
2022-10-30T16:15:07.987Z,99.90
2022-10-30T16:17:35.827Z,99.90
2022-10-30T16:20:06.172Z,99.90
2022-10-30T16:22:39.622Z,99.90
2022-10-30T16:25:14.769Z,99.90
2022-10-30T16:27:45.960Z,99.90
2022-10-30T16:30:16.994Z,99.90
2022-10-30T16:32:54.784Z,99.90
2022-10-30T16:35:26.048Z,99.90
2022-10-30T16:37:54.420Z,99.90
2022-10-30T16:40:27.937Z,99.90
2022-10-30T16:43:01.201Z,99.90
2022-10-30T16:45:31.842Z,99.90
2022-10-30T16:48:13.980Z,99.90
2022-10-30T16:50:41.648Z,99.90
2022-10-30T16:53:33.938Z,99.90
2022-10-30T16:56:01.814Z,99.90
2022-10-30T16:58:31.232Z,99.90
2022-10-30T17:01:06.097Z,99.90
2022-10-30T17:03:41.955Z,99.90
2022-10-30T17:06:27.943Z,99.90
2022-10-30T17:08:59.630Z,99.90
2022-10-30T17:12:20.741Z,99.90
2022-10-30T17:14:49.753Z,99.90
2022-10-30T17:17:39.301Z,99.90
2022-10-30T17:20:12.603Z,99.90
2022-10-30T17:22:40.187Z,99.90
2022-10-30T17:25:52.742Z,99.90
2022-10-30T17:28:33.995Z,99.90
2022-10-30T17:31:24.802Z,99.90
2022-10-30T17:34:21.793Z,99.90
2022-10-30T17:36:49.786Z,99.90
2022-10-30T17:39:17.343Z,99.90
2022-10-30T17:41:44.792Z,99.90
2022-10-30T17:44:21.462Z,99.90
2022-10-30T17:46:51.208Z,99.90
2022-10-30T17:49:32.060Z,99.90
2022-10-30T17:51:59.710Z,99.90
2022-10-30T17:54:27.147Z,99.90
2022-10-30T17:56:55.044Z,99.90
2022-10-30T17:59:23.783Z,99.90
2022-10-30T18:01:51.164Z,99.90
2022-10-30T18:04:21.533Z,99.90
2022-10-30T18:06:50.381Z,99.90
2022-10-30T18:09:18.427Z,99.90
2022-10-30T18:11:45.969Z,99.90
2022-10-30T18:14:13.337Z,99.90
2022-10-30T18:16:41.844Z,99.90
2022-10-30T18:19:11.148Z,99.90
2022-10-30T18:21:39.050Z,99.90
2022-10-30T18:24:11.778Z,99.90
2022-10-30T18:26:40.661Z,99.90
2022-10-30T18:29:09.907Z,99.90
2022-10-30T18:31:38.553Z,99.90
2022-10-30T18:34:15.112Z,99.90
2022-10-30T18:36:43.218Z,99.90
2022-10-30T18:39:13.086Z,99.90
2022-10-30T18:41:45.371Z,99.90
2022-10-30T18:44:17.174Z,99.90
2022-10-30T18:46:45.332Z,99.90
2022-10-30T18:49:13.168Z,99.90
2022-10-30T18:51:41.063Z,99.90
2022-10-30T18:54:17.104Z,99.90
2022-10-30T18:56:44.434Z,99.90
2022-10-30T18:59:11.804Z,99.90
2022-10-30T19:01:39.669Z,99.90
2022-10-30T19:04:11.717Z,99.90
2022-10-30T19:06:39.325Z,99.90
2022-10-30T19:09:06.951Z,99.90
2022-10-30T19:11:36.387Z,99.90
2022-10-30T19:14:13.804Z,99.90
2022-10-30T19:16:41.310Z,99.90
2022-10-30T19:19:08.740Z,99.90
2022-10-30T19:21:37.198Z,99.90
2022-10-30T19:24:12.607Z,99.90
2022-10-30T19:26:41.275Z,99.90
2022-10-30T19:29:08.632Z,99.90
2022-10-30T19:31:36.126Z,99.90
2022-10-30T19:34:04.294Z,99.90
2022-10-30T19:36:37.008Z,99.90
2022-10-30T19:39:10.927Z,99.90
2022-10-30T19:41:40.056Z,99.90
2022-10-30T19:44:07.524Z,99.90
2022-10-30T19:46:36.157Z,99.90
2022-10-30T19:49:17.131Z,99.90
2022-10-30T19:51:44.669Z,99.90
2022-10-30T19:54:12.084Z,99.90
2022-10-30T19:56:39.505Z,99.90
2022-10-30T19:59:13.156Z,99.90
2022-10-30T20:01:41.828Z,99.90
2022-10-30T20:04:09.464Z,99.90
2022-10-30T20:06:36.860Z,99.90
2022-10-30T20:09:05.540Z,99.90
2022-10-30T20:11:33.053Z,99.90
2022-10-30T20:14:00.582Z,99.90
2022-10-30T20:16:27.985Z,99.90
2022-10-30T20:18:55.332Z,99.90
2022-10-30T20:21:22.713Z,99.90
2022-10-30T20:23:51.100Z,99.90
2022-10-30T20:26:29.425Z,99.90
2022-10-30T20:28:57.752Z,99.90
2022-10-30T20:31:25.436Z,99.90
2022-10-30T20:33:52.797Z,99.90
2022-10-30T20:36:20.226Z,99.90
2022-10-30T20:38:47.590Z,99.90
2022-10-30T20:41:24.275Z,99.90
2022-10-30T20:43:52.002Z,99.90
2022-10-30T20:46:20.154Z,99.90
2022-10-30T20:48:47.724Z,99.90
2022-10-30T20:51:15.487Z,99.90
2022-10-30T20:53:42.979Z,99.90
2022-10-30T20:56:11.777Z,99.90
2022-10-30T20:58:40.042Z,99.90
2022-10-30T21:01:07.648Z,99.90
2022-10-30T21:03:34.945Z,99.90
2022-10-30T21:06:02.546Z,99.90
2022-10-30T21:08:34.250Z,99.90
2022-10-30T21:11:06.585Z,99.90
2022-10-30T21:13:34.577Z,99.90
2022-10-30T21:16:07.935Z,99.90
2022-10-30T21:18:35.415Z,99.90
2022-10-30T21:21:04.291Z,99.90
2022-10-30T21:23:32.134Z,99.90
2022-10-30T21:26:07.755Z,99.90
2022-10-30T21:28:35.173Z,99.90
2022-10-30T21:31:08.328Z,99.90
2022-10-30T21:33:37.339Z,99.90
2022-10-30T21:36:12.170Z,99.90
2022-10-30T21:38:44.765Z,99.90
2022-10-30T21:41:13.097Z,99.90
2022-10-30T21:43:40.420Z,99.90
2022-10-30T21:46:09.959Z,99.90
2022-10-30T21:48:37.630Z,99.90
2022-10-30T21:51:09.480Z,99.90
2022-10-30T21:53:36.857Z,99.90
2022-10-30T21:56:24.022Z,99.90
2022-10-30T21:58:51.676Z,99.90
2022-10-30T22:01:22.363Z,99.90
2022-10-30T22:03:50.090Z,99.90
2022-10-30T22:06:19.289Z,99.90
2022-10-30T22:08:48.088Z,99.90
2022-10-30T22:11:15.836Z,99.90
2022-10-30T22:13:43.432Z,99.90
2022-10-30T22:16:12.677Z,99.90
2022-10-30T22:18:40.201Z,99.90
2022-10-30T22:21:10.896Z,99.90
2022-10-30T22:23:39.233Z,99.90
2022-10-30T22:26:11.144Z,99.90
2022-10-30T22:28:38.330Z,99.90
2022-10-30T22:31:11.372Z,99.90
2022-10-30T22:33:38.810Z,99.90
2022-10-30T22:36:07.626Z,99.90
2022-10-30T22:38:35.626Z,99.90
2022-10-30T22:41:09.703Z,99.90
2022-10-30T22:43:36.990Z,99.90
2022-10-30T22:46:04.456Z,99.90
2022-10-30T22:48:31.898Z,99.90
2022-10-30T22:51:01.396Z,99.90
2022-10-30T22:53:30.195Z,99.90
2022-10-30T22:55:57.539Z,99.90
2022-10-30T22:58:29.121Z,99.90
2022-10-30T23:01:11.173Z,99.90
2022-10-30T23:03:38.529Z,99.90
2022-10-30T23:06:06.345Z,99.90
2022-10-30T23:08:33.638Z,99.90
2022-10-30T23:11:01.114Z,99.90
2022-10-30T23:13:28.447Z,99.90
2022-10-30T23:16:01.436Z,99.90
2022-10-30T23:18:29.601Z,99.90
2022-10-30T23:21:05.990Z,99.90
2022-10-30T23:23:40.282Z,99.90
2022-10-30T23:26:14.109Z,99.90
2022-10-30T23:28:42.013Z,99.90
2022-10-30T23:31:18.584Z,99.90
2022-10-30T23:33:50.277Z,99.90
2022-10-30T23:36:18.469Z,99.90
2022-10-30T23:38:50.184Z,99.90
2022-10-30T23:41:17.423Z,99.90
2022-10-30T23:43:44.734Z,99.90
2022-10-30T23:46:12.259Z,99.90
2022-10-30T23:48:40.112Z,99.90
2022-10-30T23:51:09.315Z,99.90
2022-10-30T23:53:36.802Z,99.90
2022-10-30T23:56:05.475Z,99.90
2022-10-30T23:58:33.157Z,99.90
